EPRZ

Rzeszów-Jasionka Airport

Rzeszów, Poland
METAR EPRZ 141630Z 02004KT 8000 -SN SCT009 OVC020 M01/M02 Q1025
Observed Flight Rules
Dec-14 @ 16:30 UTC (33 minutes ago) Marginal Visual Flight Rules
Wind Visibility Clouds Conditions
20° at 4 knots 7,998 meters
  • Scattered at 900' AGL
  • Overcast at 2,000' AGL
  • Light Snow
Temperatures Readings
Current -1°C / 30°F
Dewpoint -2°C / 28°F
Humidity 93%
Altimeter 30.27" Hg
Pressure 1025 hPa
Elevation 202
METAR EPRZ 141630Z 02004KT 8000 -SN SCT009 OVC020 M01/M02 Q1025
Observed Flight Rules
Dec-14 @ 16:30 UTC
(33 minutes ago)
MVFR
Wind Visibility
20° at 4 knots 7,998 meters
Clouds
  • Scattered at 900' AGL
  • Overcast at 2,000' AGL
Conditions
  • Light Snow
Temperature Dewpoint
-1°C / 30°F -2°C / 28°F
Humidity Altimeter Pressure
93% 30.27" Hg 1025 hPa